Time;durP1;ratioP1;P1;durP2;ratioP2;P2;SDS_P1;SDS_P2;PMS_P1;PMS_P2;Temp;Humidity;BMP_temperature;BMP_pressure;BME280_temperature;BME280_humidity;BME280_pressure;Samples;Min_cycle;Max_cycle;Signal;HPM_P1;HPM_P2
2023/08/20 10:24:07;;;;;;;;;;;33.30;94.90;32.60;99918.00;;;;353875;27;74185;-88
2023/08/20 10:24:19;;;;;;;;;;;33.00;95.20;32.60;99910.00;;;;350147;27;83276;-89
2023/08/20 10:24:42;;;;;;;;;;;33.00;95.30;32.40;99908.00;;;;347269;28;85352;-89
2023/08/20 10:24:53;;;;;;;;;;;33.00;95.00;32.50;99913.00;;;;349808;27;82609;-89
2023/08/20 10:25:24;;;;;;;;;;;33.00;94.90;32.60;99918.00;;;;348687;27;83835;-95
2023/08/20 10:25:46;;;;;;;;;;;33.00;94.90;32.60;99911.00;;;;345929;28;82293;-94
2023/08/20 10:26:07;;;;;;;;;;;33.10;95.00;32.70;99903.00;;;;348666;27;86131;-94
2023/08/20 10:26:21;;;;;;;;;;;33.10;95.00;32.60;99903.00;;;;347293;28;82374;-94
2023/08/20 10:26:34;;;;;;;;;;;33.10;94.50;32.60;99912.00;;;;347199;28;85651;-93
2023/08/20 10:26:47;;;;;;;;;;;33.10;94.60;32.70;99899.00;;;;348622;27;82480;-94
2023/08/20 10:27:31;;;;;;;;;;;33.10;94.70;32.70;99906.00;;;;348555;27;87470;-95
2023/08/20 10:27:43;;;;;;;;;;;33.10;94.70;32.70;99907.00;;;;345777;27;83442;-95
2023/08/20 10:27:55;;;;;;;;;;;33.20;94.70;32.70;99900.00;;;;345859;28;86662;-95
2023/08/20 10:28:14;;;;;;;;;;;33.20;94.80;32.70;99906.00;;;;348424;27;83434;-96
2023/08/20 10:28:26;;;;;;;;;;;33.20;94.60;32.80;99905.00;;;;348503;27;85302;-93
2023/08/20 10:28:46;;;;;;;;;;;33.20;94.70;32.80;99905.00;;;;345931;28;83531;-96
2023/08/20 10:29:41;;;;;;;;;;;33.20;94.80;32.90;99900.00;;;;349179;27;82917;-96
2023/08/20 10:29:57;;;;;;;;;;;33.30;95.10;32.90;99900.00;;;;348730;27;82634;-95
2023/08/20 10:30:29;;;;;;;;;;;33.30;94.70;32.80;99906.00;;;;348565;27;86321;-95
2023/08/20 10:31:11;;;;;;;;;;;33.30;94.80;32.80;99900.00;;;;347144;28;83550;-96
2023/08/20 10:31:25;;;;;;;;;;;33.30;94.40;32.90;99906.00;;;;345982;28;83733;-94
2023/08/20 10:31:37;;;;;;;;;;;33.30;94.50;32.80;99906.00;;;;349595;27;83931;-94
2023/08/20 10:31:49;;;;;;;;;;;33.30;94.50;32.70;99908.00;;;;346988;27;86729;-94
2023/08/20 10:32:01;;;;;;;;;;;33.30;94.20;32.70;99903.00;;;;345610;28;82519;-93
2023/08/20 10:32:13;;;;;;;;;;;33.30;94.20;32.80;99905.00;;;;348579;27;87087;-94
2023/08/20 10:32:47;;;;;;;;;;;33.30;94.30;32.80;99908.00;;;;350114;27;82520;-93
2023/08/20 10:32:59;;;;;;;;;;;33.30;94.50;32.90;99898.00;;;;348522;27;85289;-95
2023/08/20 10:33:18;;;;;;;;;;;33.30;94.70;32.70;99901.00;;;;347253;28;83401;-95
2023/08/20 10:33:30;;;;;;;;;;;33.30;94.10;32.40;99898.00;;;;348615;27;86480;-94
2023/08/20 10:33:49;;;;;;;;;;;33.20;93.80;32.50;99898.00;;;;347321;28;83484;-94
2023/08/20 10:34:01;;;;;;;;;;;33.20;93.90;32.60;99905.00;;;;345919;28;86532;-94
2023/08/20 10:34:13;;;;;;;;;;;33.20;94.50;32.60;99908.00;;;;348779;27;82516;-94
2023/08/20 10:34:36;;;;;;;;;;;33.20;94.10;32.70;99900.00;;;;348223;27;86348;-94
2023/08/20 10:34:51;;;;;;;;;;;33.20;94.30;32.70;99904.00;;;;345960;28;82539;-93
2023/08/20 10:35:04;;;;;;;;;;;33.20;94.10;32.90;99898.00;;;;347184;28;86469;-94
2023/08/20 10:35:23;;;;;;;;;;;33.20;94.60;32.90;99900.00;;;;345905;28;83478;-94
2023/08/20 10:35:37;;;;;;;;;;;33.20;94.60;32.90;99903.00;;;;347068;28;85398;-94
2023/08/20 10:35:50;;;;;;;;;;;33.30;94.30;32.90;99897.00;;;;346061;28;83397;-94
2023/08/20 10:36:28;;;;;;;;;;;33.30;94.20;32.80;99895.00;;;;346869;28;86937;-94
2023/08/20 10:36:41;;;;;;;;;;;33.30;94.30;32.70;99902.00;;;;345703;28;82449;-94
2023/08/20 10:36:53;;;;;;;;;;;33.30;94.10;32.80;99900.00;;;;345897;28;86620;-95
2023/08/20 10:37:14;;;;;;;;;;;33.30;94.20;32.80;99904.00;;;;344584;28;82495;-94
2023/08/20 10:37:28;;;;;;;;;;;33.30;93.90;32.80;99895.00;;;;347179;28;86626;-94
2023/08/20 10:37:40;;;;;;;;;;;33.30;93.60;32.80;99899.00;;;;347349;28;82406;-94
2023/08/20 10:38:05;;;;;;;;;;;33.30;93.40;32.80;99896.00;;;;347095;28;87249;-94
2023/08/20 10:38:17;;;;;;;;;;;33.30;93.40;32.90;99895.00;;;;347327;28;83362;-94
2023/08/20 10:38:31;;;;;;;;;;;33.30;93.40;32.80;99894.00;;;;345847;28;87352;-94
2023/08/20 10:38:44;;;;;;;;;;;33.30;93.10;32.90;99899.00;;;;347793;27;83507;-94
2023/08/20 10:38:57;;;;;;;;;;;33.30;93.00;32.90;99893.00;;;;347211;28;87743;-94
2023/08/20 10:39:19;;;;;;;;;;;33.40;93.20;32.90;99896.00;;;;347280;28;82457;-95
2023/08/20 10:39:31;;;;;;;;;;;33.40;93.30;32.90;99893.00;;;;345789;28;87511;-94
2023/08/20 10:39:44;;;;;;;;;;;33.40;92.90;33.00;99899.00;;;;347345;28;83343;-94
2023/08/20 10:39:57;;;;;;;;;;;33.30;93.30;33.00;99888.00;;;;348650;27;84827;-94
2023/08/20 10:40:10;;;;;;;;;;;33.40;93.70;33.10;99893.00;;;;346929;27;83839;-95
2023/08/20 10:40:47;;;;;;;;;;;33.40;93.50;32.90;99890.00;;;;347571;27;86820;-94
2023/08/20 10:40:59;;;;;;;;;;;33.40;93.00;33.00;99885.00;;;;347311;28;83385;-93
2023/08/20 10:41:11;;;;;;;;;;;33.40;93.30;33.00;99889.00;;;;344424;28;84905;-94
2023/08/20 10:41:26;;;;;;;;;;;33.40;93.40;33.10;99893.00;;;;347310;28;83466;-94
2023/08/20 10:41:38;;;;;;;;;;;33.50;93.60;33.00;99895.00;;;;347266;28;87127;-94
2023/08/20 10:42:27;;;;;;;;;;;33.40;93.20;33.00;99892.00;;;;349979;27;83426;-94
2023/08/20 10:42:41;;;;;;;;;;;33.40;93.30;33.00;99892.00;;;;341769;28;87148;-94
2023/08/20 10:42:52;;;;;;;;;;;33.50;93.30;32.90;99885.00;;;;343087;28;82453;-94
2023/08/20 10:43:04;;;;;;;;;;;33.50;93.40;32.80;99880.00;;;;343246;28;87362;-95
2023/08/20 10:43:29;;;;;;;;;;;33.50;93.20;32.80;99887.00;;;;345876;28;83268;-94
2023/08/20 10:43:46;;;;;;;;;;;33.50;93.20;33.00;99892.00;;;;347335;28;87176;-94
2023/08/20 10:43:58;;;;;;;;;;;33.50;93.80;33.10;99889.00;;;;345858;28;83487;-94
2023/08/20 10:44:10;;;;;;;;;;;33.50;93.90;33.20;99883.00;;;;348421;27;86279;-94
2023/08/20 10:44:22;;;;;;;;;;;33.50;94.10;33.20;99887.00;;;;344589;28;83407;-93
2023/08/20 10:45:03;;;;;;;;;;;33.60;94.30;33.30;99884.00;;;;345705;28;85692;-94
2023/08/20 10:45:15;;;;;;;;;;;33.60;94.30;33.30;99891.00;;;;346975;28;83408;-95
2023/08/20 10:45:27;;;;;;;;;;;33.70;94.00;33.10;99893.00;;;;348258;27;86588;-94
2023/08/20 10:45:43;;;;;;;;;;;33.70;93.40;32.70;99885.00;;;;347327;28;82612;-94
2023/08/20 10:46:17;;;;;;;;;;;33.70;93.30;32.90;99881.00;;;;349775;27;85490;-94
2023/08/20 10:46:30;;;;;;;;;;;33.60;93.30;33.20;99886.00;;;;350053;27;83413;-94
2023/08/20 10:46:49;;;;;;;;;;;33.60;94.10;33.30;99889.00;;;;347205;28;86033;-94
2023/08/20 10:47:01;;;;;;;;;;;33.60;93.90;33.30;99882.00;;;;345954;28;82522;-94
2023/08/20 10:47:16;;;;;;;;;;;33.70;94.10;33.30;99881.00;;;;347947;27;87715;-95
2023/08/20 10:47:48;;;;;;;;;;;33.70;93.80;33.30;99878.00;;;;347296;28;83323;-94
2023/08/20 10:48:00;;;;;;;;;;;33.70;93.90;33.40;99887.00;;;;347322;28;86000;-94
2023/08/20 10:48:12;;;;;;;;;;;33.80;94.00;33.40;99883.00;;;;347315;28;82510;-94
2023/08/20 10:48:24;;;;;;;;;;;33.80;93.90;33.40;99879.00;;;;347262;28;86211;-95
2023/08/20 10:48:37;;;;;;;;;;;33.90;93.70;33.50;99878.00;;;;348691;27;82610;-94
2023/08/20 10:48:52;;;;;;;;;;;33.80;93.80;33.50;99883.00;;;;344483;28;86764;-95
2023/08/20 10:49:06;;;;;;;;;;;33.90;93.60;33.60;99885.00;;;;347319;28;82472;-94
2023/08/20 10:49:17;;;;;;;;;;;33.90;93.60;33.60;99881.00;;;;348584;27;86484;-94
2023/08/20 10:49:30;;;;;;;;;;;34.00;93.80;33.70;99885.00;;;;348675;27;83259;-94
2023/08/20 10:49:42;;;;;;;;;;;34.00;93.90;33.70;99879.00;;;;350089;27;85907;-94
2023/08/20 10:49:54;;;;;;;;;;;34.00;93.90;33.60;99880.00;;;;345836;28;83506;-94
2023/08/20 10:50:08;;;;;;;;;;;34.10;93.70;33.60;99878.00;;;;348684;27;86571;-94
2023/08/20 10:50:20;;;;;;;;;;;34.10;93.50;33.80;99876.00;;;;348276;27;82634;-94
2023/08/20 10:50:32;;;;;;;;;;;34.10;94.00;33.70;99882.00;;;;348361;27;86452;-94
2023/08/20 10:50:44;;;;;;;;;;;34.10;93.50;33.70;99877.00;;;;350175;27;83323;-94
2023/08/20 10:50:56;;;;;;;;;;;34.10;93.40;33.70;99884.00;;;;351484;27;87643;-95
2023/08/20 10:51:17;;;;;;;;;;;34.10;93.30;33.80;99884.00;;;;348710;27;82539;-94
2023/08/20 10:51:36;;;;;;;;;;;34.20;93.30;33.80;99882.00;;;;348618;27;87829;-94
2023/08/20 10:51:48;;;;;;;;;;;34.20;93.40;33.80;99880.00;;;;347265;28;83243;-94
2023/08/20 10:52:02;;;;;;;;;;;34.20;93.10;33.70;99880.00;;;;348552;27;86611;-94
2023/08/20 10:52:14;;;;;;;;;;;34.20;92.80;33.80;99880.00;;;;347165;28;83430;-94
2023/08/20 10:52:26;;;;;;;;;;;34.20;93.30;33.80;99882.00;;;;350036;27;87766;-94
2023/08/20 10:52:39;;;;;;;;;;;34.20;93.20;33.90;99884.00;;;;348662;27;82516;-94
2023/08/20 10:52:55;;;;;;;;;;;34.20;93.30;33.80;99879.00;;;;347176;28;87824;-94
2023/08/20 10:53:06;;;;;;;;;;;34.30;92.90;33.90;99877.00;;;;348751;27;83441;-94
2023/08/20 10:53:22;;;;;;;;;;;34.30;93.30;34.00;99884.00;;;;348501;27;87102;-94
2023/08/20 10:53:34;;;;;;;;;;;34.30;93.30;34.00;99885.00;;;;349312;27;83426;-94
2023/08/20 10:54:10;;;;;;;;;;;34.30;93.20;33.80;99887.00;;;;348545;27;87811;-94
2023/08/20 10:54:22;;;;;;;;;;;34.40;93.20;33.90;99884.00;;;;348664;27;82507;-94
2023/08/20 10:54:34;;;;;;;;;;;34.40;93.00;34.00;99883.00;;;;347426;27;86582;-95
2023/08/20 10:54:49;;;;;;;;;;;34.40;93.30;34.00;99884.00;;;;347324;28;83376;-94
2023/08/20 10:55:02;;;;;;;;;;;34.40;92.90;34.10;99881.00;;;;350017;27;87345;-94
2023/08/20 10:55:14;;;;;;;;;;;34.40;93.00;33.60;99876.00;;;;348560;27;83448;-94
2023/08/20 10:55:26;;;;;;;;;;;34.40;92.10;33.70;99878.00;;;;347154;28;86456;-94
2023/08/20 10:55:38;;;;;;;;;;;34.40;92.60;33.80;99882.00;;;;350116;27;83361;-94
2023/08/20 10:55:51;;;;;;;;;;;34.30;92.50;33.70;99877.00;;;;349884;27;86187;-95
2023/08/20 10:56:16;;;;;;;;;;;34.40;92.40;33.90;99877.00;;;;348662;27;83844;-94
2023/08/20 10:56:43;;;;;;;;;;;34.40;92.60;34.00;99886.00;;;;349880;27;87461;-94
2023/08/20 10:56:55;;;;;;;;;;;34.40;92.80;34.00;99884.00;;;;349855;27;82486;-94
2023/08/20 10:57:07;;;;;;;;;;;34.50;92.90;34.10;99883.00;;;;347148;28;87580;-95
2023/08/20 10:57:22;;;;;;;;;;;34.40;92.70;34.00;99889.00;;;;350135;27;83163;-94
2023/08/20 10:57:36;;;;;;;;;;;34.50;92.60;33.80;99881.00;;;;348661;27;86779;-94
2023/08/20 10:57:56;;;;;;;;;;;34.50;92.50;33.90;99886.00;;;;347228;28;83380;-94
2023/08/20 10:58:08;;;;;;;;;;;34.50;92.70;34.00;99884.00;;;;348624;27;86246;-95
2023/08/20 10:58:23;;;;;;;;;;;34.50;92.70;34.10;99878.00;;;;347383;28;83346;-93
2023/08/20 10:58:35;;;;;;;;;;;34.50;92.90;34.10;99877.00;;;;347174;28;86391;-94
2023/08/20 10:58:47;;;;;;;;;;;34.50;93.10;34.10;99882.00;;;;348506;27;83466;-94
2023/08/20 10:59:00;;;;;;;;;;;34.50;92.90;34.10;99883.00;;;;348513;27;87890;-95
2023/08/20 10:59:21;;;;;;;;;;;34.50;92.70;34.10;99881.00;;;;346598;28;83497;-94
2023/08/20 10:59:34;;;;;;;;;;;34.60;92.50;34.10;99886.00;;;;345596;28;86378;-94
2023/08/20 10:59:59;;;;;;;;;;;34.60;92.80;34.20;99882.00;;;;347846;27;83518;-94
2023/08/20 11:00:15;;;;;;;;;;;34.60;92.80;34.20;99878.00;;;;347088;28;86326;-94
2023/08/20 11:00:28;;;;;;;;;;;34.60;92.70;34.10;99880.00;;;;348632;27;82437;-94
2023/08/20 11:00:40;;;;;;;;;;;34.60;92.20;34.00;99877.00;;;;350055;27;87693;-94
2023/08/20 11:01:15;;;;;;;;;;;34.60;92.20;34.00;99885.00;;;;347275;28;83399;-94
2023/08/20 11:01:26;;;;;;;;;;;34.60;92.20;34.10;99875.00;;;;347080;28;86638;-94
2023/08/20 11:01:38;;;;;;;;;;;34.60;92.50;34.20;99872.00;;;;348702;27;83375;-93
2023/08/20 11:01:51;;;;;;;;;;;34.70;92.60;34.10;99873.00;;;;350032;27;87335;-95
2023/08/20 11:02:03;;;;;;;;;;;34.70;92.40;34.20;99877.00;;;;346998;27;83538;-94
2023/08/20 11:02:15;;;;;;;;;;;34.70;92.50;34.20;99878.00;;;;347175;28;86475;-94
2023/08/20 11:02:27;;;;;;;;;;;34.70;92.30;34.30;99880.00;;;;348592;27;83368;-94
2023/08/20 11:02:40;;;;;;;;;;;34.70;92.40;34.10;99875.00;;;;348155;27;86326;-94
2023/08/20 11:02:52;;;;;;;;;;;34.70;92.40;34.20;99875.00;;;;345817;28;83427;-95
2023/08/20 11:03:05;;;;;;;;;;;34.70;92.40;34.20;99873.00;;;;346024;27;87907;-95
2023/08/20 11:03:17;;;;;;;;;;;34.80;92.50;34.30;99867.00;;;;347309;28;83468;-96
2023/08/20 11:03:29;;;;;;;;;;;34.80;92.80;34.40;99875.00;;;;348611;27;87538;-96
2023/08/20 11:03:44;;;;;;;;;;;34.80;92.90;34.30;99870.00;;;;351546;27;82256;-95
2023/08/20 11:03:56;;;;;;;;;;;34.80;92.40;34.30;99868.00;;;;349877;27;86476;-96
2023/08/20 11:04:08;;;;;;;;;;;34.80;92.40;34.40;99871.00;;;;348732;27;82416;-95
2023/08/20 11:04:23;;;;;;;;;;;34.80;92.50;34.30;99872.00;;;;347123;28;86054;-95
2023/08/20 11:04:35;;;;;;;;;;;34.90;92.10;34.10;99874.00;;;;347278;28;82487;-95
2023/08/20 11:04:47;;;;;;;;;;;34.80;92.70;34.00;99876.00;;;;348494;27;85366;-95
2023/08/20 11:04:59;;;;;;;;;;;34.80;92.80;34.10;99875.00;;;;347198;28;83467;-95
2023/08/20 11:05:17;;;;;;;;;;;34.80;92.40;34.20;99871.00;;;;349953;27;86203;-95
2023/08/20 11:05:29;;;;;;;;;;;34.80;92.40;34.20;99874.00;;;;348595;27;83421;-95
2023/08/20 11:05:41;;;;;;;;;;;34.80;92.50;34.40;99870.00;;;;345808;28;86653;-96
2023/08/20 11:05:53;;;;;;;;;;;34.90;93.00;34.50;99865.00;;;;345895;28;83347;-94
2023/08/20 11:06:05;;;;;;;;;;;34.90;92.90;34.50;99872.00;;;;345623;28;87794;-95
2023/08/20 11:06:18;;;;;;;;;;;34.90;93.00;34.50;99864.00;;;;349172;27;84527;-95
2023/08/20 11:06:31;;;;;;;;;;;35.00;92.70;34.30;99868.00;;;;349926;27;86703;-94
2023/08/20 11:06:43;;;;;;;;;;;35.00;91.80;34.40;99877.00;;;;348723;27;83404;-95
2023/08/20 11:06:56;;;;;;;;;;;34.90;92.00;34.30;99873.00;;;;347144;28;87756;-95
2023/08/20 11:07:08;;;;;;;;;;;34.90;91.50;34.40;99877.00;;;;347145;28;83380;-95
2023/08/20 11:07:20;;;;;;;;;;;34.90;91.80;34.30;99868.00;;;;346848;28;87403;-95
2023/08/20 11:07:34;;;;;;;;;;;34.90;91.80;34.30;99864.00;;;;348579;27;83445;-95
2023/08/20 11:07:48;;;;;;;;;;;34.90;91.80;34.40;99869.00;;;;347239;28;87724;-95
2023/08/20 11:07:59;;;;;;;;;;;34.90;91.80;34.40;99866.00;;;;347198;28;83586;-94
2023/08/20 11:08:11;;;;;;;;;;;34.90;92.10;34.50;99867.00;;;;345798;28;86897;-95
2023/08/20 11:08:23;;;;;;;;;;;34.90;92.30;34.40;99873.00;;;;345714;28;83354;-95
2023/08/20 11:08:35;;;;;;;;;;;35.00;92.00;34.30;99867.00;;;;344311;28;87711;-95
2023/08/20 11:08:47;;;;;;;;;;;35.00;91.90;34.50;99869.00;;;;344660;28;82428;-95
2023/08/20 11:08:59;;;;;;;;;;;35.00;92.20;34.60;99875.00;;;;344467;28;87225;-95
2023/08/20 11:09:11;;;;;;;;;;;35.00;92.50;34.60;99874.00;;;;347202;28;82455;-95
2023/08/20 11:09:24;;;;;;;;;;;35.00;91.60;34.50;99868.00;;;;347295;28;86591;-95
2023/08/20 11:09:39;;;;;;;;;;;35.00;91.30;34.60;99871.00;;;;345878;28;83438;-96
2023/08/20 11:09:52;;;;;;;;;;;35.00;91.90;34.50;99875.00;;;;345780;28;86658;-95
2023/08/20 11:10:04;;;;;;;;;;;35.00;91.30;34.60;99872.00;;;;347335;28;82482;-95
2023/08/20 11:10:16;;;;;;;;;;;35.00;91.80;34.60;99874.00;;;;347159;28;87706;-95
2023/08/20 11:10:28;;;;;;;;;;;35.10;91.80;34.70;99868.00;;;;346631;28;83561;-95
2023/08/20 11:10:40;;;;;;;;;;;35.10;91.70;34.70;99867.00;;;;347262;28;86356;-95
2023/08/20 11:10:52;;;;;;;;;;;35.10;91.70;34.70;99865.00;;;;345878;28;83386;-95
2023/08/20 11:11:03;;;;;;;;;;;35.10;91.60;34.70;99864.00;;;;345850;27;86390;-95
2023/08/20 11:11:15;;;;;;;;;;;35.20;91.50;34.70;99863.00;;;;345617;28;82591;-95
2023/08/20 11:11:27;;;;;;;;;;;35.20;91.70;34.70;99864.00;;;;347156;28;86653;-95
2023/08/20 11:11:42;;;;;;;;;;;35.20;91.60;34.80;99860.00;;;;348864;27;82455;-95
2023/08/20 11:11:54;;;;;;;;;;;35.20;91.60;34.70;99878.00;;;;348512;27;86075;-95
2023/08/20 11:12:07;;;;;;;;;;;35.20;91.50;34.80;99864.00;;;;345875;28;83338;-95
2023/08/20 11:12:20;;;;;;;;;;;35.30;91.60;34.90;99861.00;;;;345870;28;86477;-96
2023/08/20 11:12:32;;;;;;;;;;;35.30;91.60;34.70;99869.00;;;;348590;27;83297;-95
2023/08/20 11:12:45;;;;;;;;;;;35.30;91.10;34.80;99870.00;;;;347155;28;87584;-93
2023/08/20 11:12:57;;;;;;;;;;;35.30;91.20;34.90;99869.00;;;;348684;27;83353;-93
2023/08/20 11:13:09;;;;;;;;;;;35.30;91.50;34.90;99866.00;;;;348404;27;87230;-93
2023/08/20 11:13:21;;;;;;;;;;;35.30;91.40;34.90;99864.00;;;;347204;28;83491;-93
2023/08/20 11:13:33;;;;;;;;;;;35.40;91.40;34.80;99868.00;;;;348486;27;87535;-93
2023/08/20 11:13:44;;;;;;;;;;;35.40;90.90;34.60;99872.00;;;;347391;28;82575;-93
2023/08/20 11:13:57;;;;;;;;;;;35.30;90.60;34.60;99869.00;;;;346854;28;86344;-94
2023/08/20 11:14:15;;;;;;;;;;;35.30;90.70;34.20;99869.00;;;;348726;27;82498;-94
2023/08/20 11:14:27;;;;;;;;;;;35.30;90.50;34.10;99872.00;;;;347499;27;86278;-93
2023/08/20 11:14:38;;;;;;;;;;;35.20;90.60;34.30;99865.00;;;;348649;27;82639;-93
2023/08/20 11:14:50;;;;;;;;;;;35.20;90.90;34.10;99872.00;;;;348541;27;86162;-94
2023/08/20 11:15:02;;;;;;;;;;;35.10;90.60;34.20;99865.00;;;;353478;27;83517;-94
2023/08/20 11:15:14;;;;;;;;;;;35.00;90.70;34.40;99859.00;;;;348022;27;86090;-94
2023/08/20 11:15:26;;;;;;;;;;;35.00;91.20;34.50;99877.00;;;;346503;28;83505;-95
2023/08/20 11:15:38;;;;;;;;;;;35.10;91.60;34.30;99869.00;;;;347120;28;87189;-95
2023/08/20 11:15:50;;;;;;;;;;;35.00;90.70;34.10;99868.00;;;;348085;27;82738;-95
2023/08/20 11:16:03;;;;;;;;;;;35.00;90.40;34.30;99867.00;;;;349738;27;85144;-95
2023/08/20 11:16:14;;;;;;;;;;;35.00;90.80;34.40;99869.00;;;;349208;27;82663;-96
2023/08/20 11:16:26;;;;;;;;;;;35.00;90.80;34.40;99862.00;;;;348426;27;86454;-95
2023/08/20 11:16:38;;;;;;;;;;;35.00;90.70;34.40;99862.00;;;;347042;28;83459;-95
2023/08/20 11:16:50;;;;;;;;;;;35.00;90.80;34.10;99868.00;;;;347680;27;85607;-95
2023/08/20 11:17:03;;;;;;;;;;;35.00;90.40;33.90;99869.00;;;;349595;27;82730;-95
2023/08/20 11:17:15;;;;;;;;;;;34.90;90.40;34.00;99862.00;;;;347096;28;86355;-95
2023/08/20 11:17:27;;;;;;;;;;;34.90;90.60;34.20;99866.00;;;;348587;27;82486;-96
2023/08/20 11:17:45;;;;;;;;;;;34.90;90.90;34.40;99869.00;;;;348496;27;87881;-95
2023/08/20 11:18:01;;;;;;;;;;;34.90;91.50;34.50;99870.00;;;;348605;27;83420;-95
2023/08/20 11:18:13;;;;;;;;;;;34.90;91.20;34.50;99867.00;;;;348808;27;86364;-95
2023/08/20 11:18:25;;;;;;;;;;;34.90;91.50;34.50;99873.00;;;;347948;27;83419;-95
2023/08/20 11:18:37;;;;;;;;;;;35.00;91.30;34.60;99869.00;;;;349811;27;86666;-95
2023/08/20 11:18:51;;;;;;;;;;;35.00;91.20;34.60;99861.00;;;;347992;27;82414;-95
2023/08/20 11:19:08;;;;;;;;;;;35.00;91.40;34.50;99869.00;;;;349778;27;85385;-96
2023/08/20 11:19:21;;;;;;;;;;;35.00;91.00;34.50;99870.00;;;;348663;27;82400;-95
2023/08/20 11:19:33;;;;;;;;;;;35.10;91.00;34.60;99868.00;;;;347148;27;86650;-95
2023/08/20 11:19:45;;;;;;;;;;;35.10;91.30;34.70;99863.00;;;;347182;28;83484;-96
2023/08/20 11:20:14;;;;;;;;;;;35.10;91.50;34.70;99870.00;;;;348486;27;87919;-96
2023/08/20 11:20:26;;;;;;;;;;;35.20;91.10;34.80;99864.00;;;;348692;27;83326;-95
2023/08/20 11:20:38;;;;;;;;;;;35.20;91.00;34.80;99862.00;;;;348274;27;86693;-95
2023/08/20 11:20:51;;;;;;;;;;;35.20;90.80;34.70;99861.00;;;;348639;27;83453;-95
2023/08/20 11:21:03;;;;;;;;;;;35.20;90.60;34.80;99861.00;;;;348451;27;87591;-95
2023/08/20 11:21:14;;;;;;;;;;;35.20;90.80;34.90;99861.00;;;;345709;28;83470;-96
2023/08/20 11:21:29;;;;;;;;;;;35.30;90.70;34.80;99860.00;;;;348532;27;86638;-95
2023/08/20 11:21:42;;;;;;;;;;;35.30;90.10;34.60;99871.00;;;;348592;27;82532;-95
2023/08/20 11:21:54;;;;;;;;;;;35.30;89.20;34.60;99864.00;;;;347055;28;87699;-95
2023/08/20 11:22:06;;;;;;;;;;;35.20;89.40;34.70;99858.00;;;;349690;27;83427;-95
2023/08/20 11:22:18;;;;;;;;;;;35.20;90.10;34.70;99856.00;;;;348145;27;87766;-96
2023/08/20 11:22:30;;;;;;;;;;;35.20;89.60;34.70;99857.00;;;;349943;27;83722;-95
2023/08/20 11:22:42;;;;;;;;;;;35.30;89.80;34.80;99857.00;;;;348168;27;86581;-96
2023/08/20 11:22:54;;;;;;;;;;;35.30;90.10;34.80;99857.00;;;;346221;27;83408;-95
2023/08/20 11:23:06;;;;;;;;;;;35.30;90.10;34.90;99857.00;;;;348498;27;87097;-95
2023/08/20 11:23:17;;;;;;;;;;;35.30;90.40;34.90;99863.00;;;;349563;27;84368;-96
2023/08/20 11:23:29;;;;;;;;;;;35.30;90.40;34.90;99858.00;;;;347156;28;86307;-95
2023/08/20 11:23:43;;;;;;;;;;;35.30;90.50;34.90;99863.00;;;;348621;27;82522;-95
2023/08/20 11:23:55;;;;;;;;;;;35.40;90.30;34.90;99859.00;;;;348395;27;86207;-95
2023/08/20 11:24:07;;;;;;;;;;;35.40;90.40;34.90;99865.00;;;;348681;27;83464;-95
2023/08/20 11:24:20;;;;;;;;;;;35.40;90.40;35.00;99863.00;;;;348542;27;87282;-95
2023/08/20 11:24:32;;;;;;;;;;;35.40;90.80;35.00;99863.00;;;;347112;28;83367;-96
2023/08/20 11:24:44;;;;;;;;;;;35.40;90.50;35.00;99864.00;;;;351076;27;86737;-95
2023/08/20 11:24:56;;;;;;;;;;;35.40;90.40;35.00;99858.00;;;;348733;27;82503;-95
2023/08/20 11:25:12;;;;;;;;;;;35.50;90.30;35.00;99863.00;;;;348425;27;87777;-95
2023/08/20 11:25:24;;;;;;;;;;;35.50;90.40;34.90;99866.00;;;;348615;27;82495;-96
2023/08/20 11:25:41;;;;;;;;;;;35.50;90.00;35.00;99866.00;;;;347176;28;86159;-96
2023/08/20 11:25:53;;;;;;;;;;;35.50;90.40;35.00;99866.00;;;;348571;27;82469;-95
2023/08/20 11:26:05;;;;;;;;;;;35.50;90.30;35.00;99864.00;;;;346999;28;84697;-95
2023/08/20 11:26:17;;;;;;;;;;;35.50;90.40;35.00;99866.00;;;;347213;28;82726;-95
2023/08/20 11:26:30;;;;;;;;;;;35.50;90.10;35.00;99869.00;;;;348442;27;87707;-96
2023/08/20 11:26:42;;;;;;;;;;;35.50;90.20;35.00;99862.00;;;;345873;28;82279;-95
2023/08/20 11:26:55;;;;;;;;;;;35.60;90.20;35.00;99859.00;;;;347301;28;83994;-95
2023/08/20 11:27:07;;;;;;;;;;;35.60;90.10;35.00;99858.00;;;;347251;28;83413;-95
2023/08/20 11:27:19;;;;;;;;;;;35.60;90.10;35.00;99865.00;;;;347392;27;86124;-95
2023/08/20 11:27:30;;;;;;;;;;;35.60;90.20;35.10;99858.00;;;;348764;27;82516;-96
2023/08/20 11:27:43;;;;;;;;;;;35.50;90.30;35.10;99860.00;;;;347919;27;86703;-95
2023/08/20 11:27:55;;;;;;;;;;;35.60;90.50;35.10;99858.00;;;;348501;27;83448;-94
2023/08/20 11:28:06;;;;;;;;;;;35.60;90.10;34.80;99859.00;;;;347147;28;86365;-95
2023/08/20 11:28:18;;;;;;;;;;;35.60;89.40;34.60;99858.00;;;;348492;27;83483;-95
2023/08/20 11:28:30;;;;;;;;;;;35.60;89.40;34.60;99863.00;;;;345584;28;83612;-95
2023/08/20 11:28:46;;;;;;;;;;;35.60;89.50;34.50;99862.00;;;;347529;27;83537;-96
2023/08/20 11:28:58;;;;;;;;;;;35.50;89.30;34.50;99865.00;;;;348506;27;86432;-95
2023/08/20 11:29:12;;;;;;;;;;;35.50;89.40;34.80;99857.00;;;;347175;28;83415;-95
2023/08/20 11:29:25;;;;;;;;;;;35.50;90.60;34.90;99859.00;;;;345715;28;87415;-95
2023/08/20 11:29:41;;;;;;;;;;;35.50;90.80;35.00;99861.00;;;;347439;28;82393;-94
2023/08/20 11:29:56;;;;;;;;;;;35.50;90.80;35.10;99861.00;;;;344244;28;86397;-95
2023/08/20 11:30:10;;;;;;;;;;;35.60;90.80;35.20;99856.00;;;;345825;28;83357;-96
2023/08/20 11:30:24;;;;;;;;;;;35.60;90.90;35.20;99862.00;;;;345709;28;88060;-95
2023/08/20 11:30:36;;;;;;;;;;;35.60;90.50;35.20;99856.00;;;;347164;28;82722;-95
2023/08/20 11:30:48;;;;;;;;;;;35.70;90.80;35.20;99861.00;;;;347045;28;87712;-95
2023/08/20 11:31:00;;;;;;;;;;;35.70;90.50;35.30;99854.00;;;;348694;27;83343;-94
2023/08/20 11:31:12;;;;;;;;;;;35.70;90.50;35.30;99858.00;;;;348416;27;87792;-95
2023/08/20 11:31:25;;;;;;;;;;;35.70;90.30;35.20;99856.00;;;;348597;27;82574;-95
2023/08/20 11:31:37;;;;;;;;;;;35.70;90.10;35.30;99857.00;;;;347225;28;86484;-96
2023/08/20 11:31:49;;;;;;;;;;;35.70;90.40;35.40;99854.00;;;;347216;28;82453;-95
2023/08/20 11:32:02;;;;;;;;;;;35.70;90.40;35.40;99854.00;;;;347083;28;86633;-96
2023/08/20 11:32:14;;;;;;;;;;;35.80;90.40;35.40;99856.00;;;;345821;28;83287;-96
2023/08/20 11:32:26;;;;;;;;;;;35.80;90.30;35.10;99856.00;;;;347135;28;87687;-96
2023/08/20 11:32:39;;;;;;;;;;;35.80;88.90;35.30;99851.00;;;;347255;28;83320;-95
2023/08/20 11:32:52;;;;;;;;;;;35.80;89.70;35.30;99856.00;;;;347126;28;86482;-95
2023/08/20 11:33:05;;;;;;;;;;;35.80;89.20;35.40;99851.00;;;;348704;27;83338;-96
2023/08/20 11:33:17;;;;;;;;;;;35.80;90.10;35.40;99850.00;;;;347039;28;86791;-95
2023/08/20 11:33:29;;;;;;;;;;;35.90;89.40;35.50;99854.00;;;;347066;28;82572;-95
2023/08/20 11:33:41;;;;;;;;;;;35.90;89.80;35.50;99854.00;;;;345815;28;86206;-94
2023/08/20 11:33:53;;;;;;;;;;;35.90;88.50;35.40;99852.00;;;;348564;27;83598;-95
2023/08/20 11:34:05;;;;;;;;;;;35.90;88.00;35.30;99853.00;;;;348569;27;86484;-96
2023/08/20 11:34:18;;;;;;;;;;;35.90;87.80;35.30;99850.00;;;;347883;27;83991;-95
2023/08/20 11:34:31;;;;;;;;;;;35.90;88.10;35.30;99847.00;;;;347462;27;87539;-95
2023/08/20 11:34:43;;;;;;;;;;;35.90;87.90;35.30;99845.00;;;;348715;27;83316;-95
2023/08/20 11:34:55;;;;;;;;;;;35.90;87.80;35.30;99845.00;;;;347124;28;88104;-96
2023/08/20 11:35:07;;;;;;;;;;;35.90;87.60;35.20;99845.00;;;;348772;27;83355;-95
2023/08/20 11:35:19;;;;;;;;;;;35.90;87.90;35.30;99851.00;;;;348552;27;86335;-95
2023/08/20 11:35:32;;;;;;;;;;;35.90;87.90;35.30;99848.00;;;;348052;27;83354;-95
2023/08/20 11:35:44;;;;;;;;;;;35.90;88.10;35.30;99850.00;;;;345806;28;86402;-95
2023/08/20 11:35:55;;;;;;;;;;;35.90;88.70;35.40;99852.00;;;;344769;28;83636;-95
2023/08/20 11:36:07;;;;;;;;;;;35.90;89.40;35.40;99848.00;;;;346582;28;86101;-95